Terminal Aerodrome Forecast
Issued by NWS Missoula, MT

Home | Current Version | Previous Version | Text Only | Print | Product List | Glossary On
Versions: 1 2 3 4 5 6 7 8 9 10 11 12 13 14 15 16 17
000
FTUS45 KMSO 282339
TAFGPI
TAF
KGPI 282339Z 2900/2924 03022G30KT P6SM VCSH OVC070
     FM291000 03022G30KT P6SM OVC070
     FM292000 03015G25KT P6SM BKN070=

USA.gov is the U.S. government's official web portal to all federal, state and local government web resources and services.